sensor_id;sensor_type;location;lat;lon;timestamp;P1;durP1;ratioP1;P2;durP2;ratioP2
4756;SDS011;2392;52.578;13.426;2023-05-07T00:00:29;15.70;;;11.10;;
4756;SDS011;2392;52.578;13.426;2023-05-07T00:02:56;17.17;;;11.70;;
4756;SDS011;2392;52.578;13.426;2023-05-07T00:05:23;12.87;;;10.60;;
4756;SDS011;2392;52.578;13.426;2023-05-07T00:07:50;12.00;;;9.77;;
4756;SDS011;2392;52.578;13.426;2023-05-07T00:10:19;14.30;;;10.77;;
4756;SDS011;2392;52.578;13.426;2023-05-07T00:12:46;14.57;;;9.87;;
4756;SDS011;2392;52.578;13.426;2023-05-07T00:15:13;14.20;;;11.10;;
4756;SDS011;2392;52.578;13.426;2023-05-07T00:17:40;14.93;;;10.47;;
4756;SDS011;2392;52.578;13.426;2023-05-07T00:20:07;11.30;;;9.83;;
4756;SDS011;2392;52.578;13.426;2023-05-07T00:22:35;10.43;;;9.40;;
4756;SDS011;2392;52.578;13.426;2023-05-07T00:25:03;12.03;;;10.47;;
4756;SDS011;2392;52.578;13.426;2023-05-07T00:27:33;12.47;;;10.67;;
4756;SDS011;2392;52.578;13.426;2023-05-07T00:30:00;14.53;;;9.27;;
4756;SDS011;2392;52.578;13.426;2023-05-07T00:32:27;11.00;;;9.80;;
4756;SDS011;2392;52.578;13.426;2023-05-07T00:34:54;10.83;;;9.73;;
4756;SDS011;2392;52.578;13.426;2023-05-07T00:37:21;9.37;;;8.53;;
4756;SDS011;2392;52.578;13.426;2023-05-07T00:39:48;10.10;;;9.10;;
4756;SDS011;2392;52.578;13.426;2023-05-07T00:42:15;11.07;;;9.97;;
4756;SDS011;2392;52.578;13.426;2023-05-07T00:44:43;12.53;;;10.40;;
4756;SDS011;2392;52.578;13.426;2023-05-07T00:47:10;10.93;;;9.83;;
4756;SDS011;2392;52.578;13.426;2023-05-07T00:49:38;10.40;;;9.30;;
4756;SDS011;2392;52.578;13.426;2023-05-07T00:52:08;11.03;;;9.00;;
4756;SDS011;2392;52.578;13.426;2023-05-07T00:54:37;9.57;;;8.60;;
4756;SDS011;2392;52.578;13.426;2023-05-07T00:57:06;12.23;;;9.67;;
4756;SDS011;2392;52.578;13.426;2023-05-07T00:59:35;14.83;;;9.80;;
4756;SDS011;2392;52.578;13.426;2023-05-07T01:02:03;11.60;;;9.70;;
4756;SDS011;2392;52.578;13.426;2023-05-07T01:04:30;11.70;;;8.83;;
4756;SDS011;2392;52.578;13.426;2023-05-07T01:06:57;10.40;;;9.30;;
4756;SDS011;2392;52.578;13.426;2023-05-07T01:09:25;10.13;;;9.10;;
4756;SDS011;2392;52.578;13.426;2023-05-07T01:11:54;10.30;;;9.30;;
4756;SDS011;2392;52.578;13.426;2023-05-07T01:14:22;13.87;;;10.13;;
4756;SDS011;2392;52.578;13.426;2023-05-07T01:16:50;11.20;;;9.03;;
4756;SDS011;2392;52.578;13.426;2023-05-07T01:19:21;10.20;;;9.20;;
4756;SDS011;2392;52.578;13.426;2023-05-07T01:21:48;12.00;;;9.10;;
4756;SDS011;2392;52.578;13.426;2023-05-07T01:24:19;12.43;;;9.60;;
4756;SDS011;2392;52.578;13.426;2023-05-07T01:26:47;11.30;;;9.87;;
4756;SDS011;2392;52.578;13.426;2023-05-07T01:29:16;10.67;;;9.63;;
4756;SDS011;2392;52.578;13.426;2023-05-07T01:31:44;11.53;;;9.70;;
4756;SDS011;2392;52.578;13.426;2023-05-07T01:34:13;11.70;;;9.53;;
4756;SDS011;2392;52.578;13.426;2023-05-07T01:36:41;13.90;;;9.60;;
4756;SDS011;2392;52.578;13.426;2023-05-07T01:39:10;9.97;;;8.93;;
4756;SDS011;2392;52.578;13.426;2023-05-07T01:41:39;10.17;;;9.23;;
4756;SDS011;2392;52.578;13.426;2023-05-07T01:44:07;9.93;;;8.93;;
4756;SDS011;2392;52.578;13.426;2023-05-07T01:46:35;12.20;;;9.40;;
4756;SDS011;2392;52.578;13.426;2023-05-07T01:49:02;11.60;;;9.57;;
4756;SDS011;2392;52.578;13.426;2023-05-07T01:51:29;10.40;;;9.37;;
4756;SDS011;2392;52.578;13.426;2023-05-07T01:53:57;11.40;;;8.87;;
4756;SDS011;2392;52.578;13.426;2023-05-07T01:56:24;12.10;;;10.93;;
4756;SDS011;2392;52.578;13.426;2023-05-07T01:58:53;11.30;;;10.20;;
4756;SDS011;2392;52.578;13.426;2023-05-07T02:01:20;11.73;;;9.30;;
4756;SDS011;2392;52.578;13.426;2023-05-07T02:03:48;12.27;;;9.40;;
4756;SDS011;2392;52.578;13.426;2023-05-07T02:06:21;10.10;;;9.17;;
4756;SDS011;2392;52.578;13.426;2023-05-07T02:08:50;9.73;;;8.60;;
4756;SDS011;2392;52.578;13.426;2023-05-07T02:11:17;11.40;;;10.00;;
4756;SDS011;2392;52.578;13.426;2023-05-07T02:13:44;12.27;;;9.73;;
4756;SDS011;2392;52.578;13.426;2023-05-07T02:16:12;10.60;;;9.07;;
4756;SDS011;2392;52.578;13.426;2023-05-07T02:18:40;11.03;;;8.87;;
4756;SDS011;2392;52.578;13.426;2023-05-07T02:21:07;10.20;;;8.90;;
4756;SDS011;2392;52.578;13.426;2023-05-07T02:23:34;10.30;;;8.93;;
4756;SDS011;2392;52.578;13.426;2023-05-07T02:26:01;10.13;;;9.23;;
4756;SDS011;2392;52.578;13.426;2023-05-07T02:28:28;13.20;;;9.37;;
4756;SDS011;2392;52.578;13.426;2023-05-07T02:31:05;11.03;;;9.20;;
4756;SDS011;2392;52.578;13.426;2023-05-07T02:33:34;9.60;;;8.70;;
4756;SDS011;2392;52.578;13.426;2023-05-07T02:36:07;9.07;;;8.17;;
4756;SDS011;2392;52.578;13.426;2023-05-07T02:38:39;9.60;;;8.70;;
4756;SDS011;2392;52.578;13.426;2023-05-07T02:41:06;9.67;;;8.77;;
4756;SDS011;2392;52.578;13.426;2023-05-07T02:43:33;11.13;;;8.80;;
4756;SDS011;2392;52.578;13.426;2023-05-07T02:46:01;9.37;;;8.43;;
4756;SDS011;2392;52.578;13.426;2023-05-07T02:48:29;9.87;;;8.80;;
4756;SDS011;2392;52.578;13.426;2023-05-07T02:50:57;11.30;;;8.13;;
4756;SDS011;2392;52.578;13.426;2023-05-07T02:53:25;8.83;;;7.93;;
4756;SDS011;2392;52.578;13.426;2023-05-07T02:55:52;9.40;;;8.50;;
4756;SDS011;2392;52.578;13.426;2023-05-07T02:58:19;9.20;;;8.30;;
4756;SDS011;2392;52.578;13.426;2023-05-07T03:00:46;8.30;;;7.50;;
4756;SDS011;2392;52.578;13.426;2023-05-07T03:03:45;8.50;;;7.70;;
4756;SDS011;2392;52.578;13.426;2023-05-07T03:06:14;8.50;;;7.60;;
4756;SDS011;2392;52.578;13.426;2023-05-07T03:08:41;8.63;;;7.70;;
4756;SDS011;2392;52.578;13.426;2023-05-07T03:11:08;7.53;;;6.73;;
4756;SDS011;2392;52.578;13.426;2023-05-07T03:13:35;8.40;;;7.67;;
4756;SDS011;2392;52.578;13.426;2023-05-07T03:16:02;8.03;;;7.30;;
4756;SDS011;2392;52.578;13.426;2023-05-07T03:18:30;7.70;;;7.00;;
4756;SDS011;2392;52.578;13.426;2023-05-07T03:20:57;9.47;;;8.47;;
4756;SDS011;2392;52.578;13.426;2023-05-07T03:23:25;8.63;;;7.70;;
4756;SDS011;2392;52.578;13.426;2023-05-07T03:25:53;8.83;;;7.47;;
4756;SDS011;2392;52.578;13.426;2023-05-07T03:28:20;10.27;;;7.70;;
4756;SDS011;2392;52.578;13.426;2023-05-07T03:30:55;9.37;;;7.87;;
4756;SDS011;2392;52.578;13.426;2023-05-07T03:33:22;8.03;;;7.23;;
4756;SDS011;2392;52.578;13.426;2023-05-07T03:35:50;9.17;;;7.57;;
4756;SDS011;2392;52.578;13.426;2023-05-07T03:38:21;9.40;;;8.50;;
4756;SDS011;2392;52.578;13.426;2023-05-07T03:40:50;9.80;;;7.50;;
4756;SDS011;2392;52.578;13.426;2023-05-07T03:43:17;8.50;;;7.60;;
4756;SDS011;2392;52.578;13.426;2023-05-07T03:45:49;8.50;;;7.60;;
4756;SDS011;2392;52.578;13.426;2023-05-07T03:48:22;11.40;;;8.57;;
4756;SDS011;2392;52.578;13.426;2023-05-07T03:50:51;8.20;;;7.40;;
4756;SDS011;2392;52.578;13.426;2023-05-07T03:53:19;9.50;;;7.73;;
4756;SDS011;2392;52.578;13.426;2023-05-07T03:55:46;8.70;;;7.33;;
4756;SDS011;2392;52.578;13.426;2023-05-07T03:58:15;12.23;;;8.83;;
4756;SDS011;2392;52.578;13.426;2023-05-07T04:00:42;9.13;;;7.97;;
4756;SDS011;2392;52.578;13.426;2023-05-07T04:03:20;7.20;;;6.60;;
4756;SDS011;2392;52.578;13.426;2023-05-07T04:05:47;9.67;;;8.37;;
4756;SDS011;2392;52.578;13.426;2023-05-07T04:08:14;9.10;;;7.20;;
4756;SDS011;2392;52.578;13.426;2023-05-07T04:10:45;7.23;;;6.53;;
4756;SDS011;2392;52.578;13.426;2023-05-07T04:13:12;8.33;;;7.33;;
4756;SDS011;2392;52.578;13.426;2023-05-07T04:15:43;7.87;;;7.07;;
4756;SDS011;2392;52.578;13.426;2023-05-07T04:18:13;9.80;;;7.00;;
4756;SDS011;2392;52.578;13.426;2023-05-07T04:20:43;6.77;;;6.17;;
4756;SDS011;2392;52.578;13.426;2023-05-07T04:23:12;8.60;;;7.10;;
4756;SDS011;2392;52.578;13.426;2023-05-07T04:25:40;7.70;;;6.97;;
4756;SDS011;2392;52.578;13.426;2023-05-07T04:28:20;10.03;;;7.73;;
4756;SDS011;2392;52.578;13.426;2023-05-07T04:30:48;8.60;;;7.70;;
4756;SDS011;2392;52.578;13.426;2023-05-07T04:33:16;7.97;;;7.23;;
4756;SDS011;2392;52.578;13.426;2023-05-07T04:35:44;8.80;;;7.13;;
4756;SDS011;2392;52.578;13.426;2023-05-07T04:38:11;10.53;;;7.30;;
4756;SDS011;2392;52.578;13.426;2023-05-07T04:40:38;7.90;;;7.10;;
4756;SDS011;2392;52.578;13.426;2023-05-07T04:43:08;9.23;;;6.50;;
4756;SDS011;2392;52.578;13.426;2023-05-07T04:45:44;7.60;;;6.60;;
4756;SDS011;2392;52.578;13.426;2023-05-07T04:48:11;9.10;;;7.17;;
4756;SDS011;2392;52.578;13.426;2023-05-07T04:50:40;7.80;;;6.80;;
4756;SDS011;2392;52.578;13.426;2023-05-07T04:53:07;8.10;;;7.00;;
4756;SDS011;2392;52.578;13.426;2023-05-07T04:55:35;7.17;;;6.50;;
4756;SDS011;2392;52.578;13.426;2023-05-07T04:58:03;7.50;;;6.37;;
4756;SDS011;2392;52.578;13.426;2023-05-07T05:00:32;7.80;;;6.97;;
4756;SDS011;2392;52.578;13.426;2023-05-07T05:03:04;8.33;;;7.43;;
4756;SDS011;2392;52.578;13.426;2023-05-07T05:05:31;8.00;;;7.20;;
4756;SDS011;2392;52.578;13.426;2023-05-07T05:07:59;10.37;;;6.97;;
4756;SDS011;2392;52.578;13.426;2023-05-07T05:10:26;9.00;;;6.80;;
4756;SDS011;2392;52.578;13.426;2023-05-07T05:12:54;7.17;;;6.47;;
4756;SDS011;2392;52.578;13.426;2023-05-07T05:15:22;9.60;;;7.50;;
4756;SDS011;2392;52.578;13.426;2023-05-07T05:17:50;8.13;;;7.33;;
4756;SDS011;2392;52.578;13.426;2023-05-07T05:20:19;7.23;;;6.53;;
4756;SDS011;2392;52.578;13.426;2023-05-07T05:22:47;7.23;;;6.53;;
4756;SDS011;2392;52.578;13.426;2023-05-07T05:25:14;8.73;;;6.83;;
4756;SDS011;2392;52.578;13.426;2023-05-07T05:27:41;8.33;;;6.67;;
4756;SDS011;2392;52.578;13.426;2023-05-07T05:30:09;8.20;;;7.40;;
4756;SDS011;2392;52.578;13.426;2023-05-07T05:32:37;6.93;;;6.30;;
4756;SDS011;2392;52.578;13.426;2023-05-07T05:35:05;8.00;;;7.30;;
4756;SDS011;2392;52.578;13.426;2023-05-07T05:37:34;9.03;;;7.80;;
4756;SDS011;2392;52.578;13.426;2023-05-07T05:40:03;8.93;;;6.83;;
4756;SDS011;2392;52.578;13.426;2023-05-07T05:42:32;7.37;;;6.50;;
4756;SDS011;2392;52.578;13.426;2023-05-07T05:44:59;6.30;;;5.70;;
4756;SDS011;2392;52.578;13.426;2023-05-07T05:47:28;8.17;;;7.03;;
4756;SDS011;2392;52.578;13.426;2023-05-07T05:49:55;7.23;;;6.53;;
4756;SDS011;2392;52.578;13.426;2023-05-07T05:52:22;7.20;;;6.50;;
4756;SDS011;2392;52.578;13.426;2023-05-07T05:54:53;6.70;;;5.93;;
4756;SDS011;2392;52.578;13.426;2023-05-07T05:57:20;9.70;;;7.00;;
4756;SDS011;2392;52.578;13.426;2023-05-07T05:59:47;7.43;;;6.73;;
4756;SDS011;2392;52.578;13.426;2023-05-07T06:02:14;10.53;;;7.20;;
4756;SDS011;2392;52.578;13.426;2023-05-07T06:04:41;8.63;;;6.90;;
4756;SDS011;2392;52.578;13.426;2023-05-07T06:07:10;7.00;;;6.30;;
4756;SDS011;2392;52.578;13.426;2023-05-07T06:09:37;7.27;;;6.57;;
4756;SDS011;2392;52.578;13.426;2023-05-07T06:12:06;8.33;;;7.40;;
4756;SDS011;2392;52.578;13.426;2023-05-07T06:14:33;7.13;;;6.43;;
4756;SDS011;2392;52.578;13.426;2023-05-07T06:17:00;7.67;;;6.87;;
4756;SDS011;2392;52.578;13.426;2023-05-07T06:19:27;7.23;;;6.53;;
4756;SDS011;2392;52.578;13.426;2023-05-07T06:21:56;7.90;;;5.87;;
4756;SDS011;2392;52.578;13.426;2023-05-07T06:24:26;7.03;;;6.03;;
4756;SDS011;2392;52.578;13.426;2023-05-07T06:26:53;9.57;;;6.73;;
4756;SDS011;2392;52.578;13.426;2023-05-07T06:29:22;7.33;;;6.57;;
4756;SDS011;2392;52.578;13.426;2023-05-07T06:31:51;8.07;;;5.80;;
4756;SDS011;2392;52.578;13.426;2023-05-07T06:34:19;7.27;;;6.50;;
4756;SDS011;2392;52.578;13.426;2023-05-07T06:36:46;8.27;;;6.30;;
4756;SDS011;2392;52.578;13.426;2023-05-07T06:39:29;7.40;;;6.70;;
4756;SDS011;2392;52.578;13.426;2023-05-07T06:41:56;9.80;;;7.20;;
4756;SDS011;2392;52.578;13.426;2023-05-07T06:44:29;9.40;;;6.30;;
4756;SDS011;2392;52.578;13.426;2023-05-07T06:47:03;9.40;;;6.50;;
4756;SDS011;2392;52.578;13.426;2023-05-07T06:49:31;6.90;;;6.27;;
4756;SDS011;2392;52.578;13.426;2023-05-07T06:51:58;7.83;;;6.93;;
4756;SDS011;2392;52.578;13.426;2023-05-07T06:54:26;7.50;;;5.83;;
4756;SDS011;2392;52.578;13.426;2023-05-07T06:56:53;8.93;;;6.10;;
4756;SDS011;2392;52.578;13.426;2023-05-07T06:59:23;5.93;;;5.23;;
4756;SDS011;2392;52.578;13.426;2023-05-07T07:01:52;7.63;;;6.77;;
4756;SDS011;2392;52.578;13.426;2023-05-07T07:04:19;8.53;;;6.90;;
4756;SDS011;2392;52.578;13.426;2023-05-07T07:06:53;5.90;;;5.40;;
4756;SDS011;2392;52.578;13.426;2023-05-07T07:09:22;4.77;;;4.37;;
4756;SDS011;2392;52.578;13.426;2023-05-07T07:11:50;7.20;;;5.03;;
4756;SDS011;2392;52.578;13.426;2023-05-07T07:14:18;6.33;;;5.63;;
4756;SDS011;2392;52.578;13.426;2023-05-07T07:16:49;6.97;;;5.60;;
4756;SDS011;2392;52.578;13.426;2023-05-07T07:19:19;6.40;;;5.70;;
4756;SDS011;2392;52.578;13.426;2023-05-07T07:21:49;4.97;;;4.57;;
4756;SDS011;2392;52.578;13.426;2023-05-07T07:24:16;5.20;;;4.70;;
4756;SDS011;2392;52.578;13.426;2023-05-07T07:26:47;5.70;;;4.93;;
4756;SDS011;2392;52.578;13.426;2023-05-07T07:29:15;5.03;;;4.53;;
4756;SDS011;2392;52.578;13.426;2023-05-07T07:31:44;4.97;;;4.47;;
4756;SDS011;2392;52.578;13.426;2023-05-07T07:34:11;6.90;;;5.23;;
4756;SDS011;2392;52.578;13.426;2023-05-07T07:36:40;5.03;;;4.60;;
4756;SDS011;2392;52.578;13.426;2023-05-07T07:39:07;5.33;;;4.40;;
4756;SDS011;2392;52.578;13.426;2023-05-07T07:41:36;5.00;;;4.57;;
4756;SDS011;2392;52.578;13.426;2023-05-07T07:44:03;5.33;;;4.87;;
4756;SDS011;2392;52.578;13.426;2023-05-07T07:46:34;5.00;;;4.60;;
4756;SDS011;2392;52.578;13.426;2023-05-07T07:49:02;4.70;;;4.30;;
4756;SDS011;2392;52.578;13.426;2023-05-07T07:51:29;5.50;;;4.30;;
4756;SDS011;2392;52.578;13.426;2023-05-07T07:53:59;3.93;;;3.70;;
4756;SDS011;2392;52.578;13.426;2023-05-07T07:56:29;4.30;;;3.90;;
4756;SDS011;2392;52.578;13.426;2023-05-07T07:58:56;4.20;;;3.50;;
4756;SDS011;2392;52.578;13.426;2023-05-07T08:01:24;3.50;;;3.27;;
4756;SDS011;2392;52.578;13.426;2023-05-07T08:03:52;3.53;;;3.33;;
4756;SDS011;2392;52.578;13.426;2023-05-07T08:06:20;5.27;;;4.73;;
4756;SDS011;2392;52.578;13.426;2023-05-07T08:08:47;9.20;;;4.00;;
4756;SDS011;2392;52.578;13.426;2023-05-07T08:11:17;5.63;;;3.27;;
4756;SDS011;2392;52.578;13.426;2023-05-07T08:13:45;3.47;;;3.17;;
4756;SDS011;2392;52.578;13.426;2023-05-07T08:16:13;3.20;;;2.90;;
4756;SDS011;2392;52.578;13.426;2023-05-07T08:18:41;4.70;;;3.60;;
4756;SDS011;2392;52.578;13.426;2023-05-07T08:21:08;3.57;;;2.97;;
4756;SDS011;2392;52.578;13.426;2023-05-07T08:23:35;5.73;;;3.70;;
4756;SDS011;2392;52.578;13.426;2023-05-07T08:26:03;3.20;;;2.90;;
4756;SDS011;2392;52.578;13.426;2023-05-07T08:28:32;2.73;;;2.53;;
4756;SDS011;2392;52.578;13.426;2023-05-07T08:31:00;3.57;;;3.10;;
4756;SDS011;2392;52.578;13.426;2023-05-07T08:33:30;4.20;;;3.80;;
4756;SDS011;2392;52.578;13.426;2023-05-07T08:35:57;3.37;;;3.07;;
4756;SDS011;2392;52.578;13.426;2023-05-07T08:38:24;3.20;;;3.00;;
4756;SDS011;2392;52.578;13.426;2023-05-07T08:40:51;5.10;;;4.03;;
4756;SDS011;2392;52.578;13.426;2023-05-07T08:43:19;4.50;;;3.50;;
4756;SDS011;2392;52.578;13.426;2023-05-07T08:45:51;3.83;;;3.40;;
4756;SDS011;2392;52.578;13.426;2023-05-07T08:48:25;3.70;;;2.93;;
4756;SDS011;2392;52.578;13.426;2023-05-07T08:51:02;7.83;;;3.00;;
4756;SDS011;2392;52.578;13.426;2023-05-07T08:53:30;7.10;;;5.57;;
4756;SDS011;2392;52.578;13.426;2023-05-07T08:55:58;3.40;;;3.03;;
4756;SDS011;2392;52.578;13.426;2023-05-07T08:58:27;4.17;;;3.33;;
4756;SDS011;2392;52.578;13.426;2023-05-07T09:00:56;3.00;;;2.70;;
4756;SDS011;2392;52.578;13.426;2023-05-07T09:03:23;3.33;;;3.03;;
4756;SDS011;2392;52.578;13.426;2023-05-07T09:05:53;3.60;;;3.30;;
4756;SDS011;2392;52.578;13.426;2023-05-07T09:08:24;3.30;;;3.00;;
4756;SDS011;2392;52.578;13.426;2023-05-07T09:10:53;3.90;;;3.37;;
4756;SDS011;2392;52.578;13.426;2023-05-07T09:13:21;4.00;;;3.43;;
4756;SDS011;2392;52.578;13.426;2023-05-07T09:15:49;3.40;;;3.10;;
4756;SDS011;2392;52.578;13.426;2023-05-07T09:18:18;5.23;;;3.93;;
4756;SDS011;2392;52.578;13.426;2023-05-07T09:20:47;3.60;;;2.90;;
4756;SDS011;2392;52.578;13.426;2023-05-07T09:23:17;3.30;;;3.00;;
4756;SDS011;2392;52.578;13.426;2023-05-07T09:25:45;3.37;;;3.07;;
4756;SDS011;2392;52.578;13.426;2023-05-07T09:28:23;5.67;;;2.53;;
4756;SDS011;2392;52.578;13.426;2023-05-07T09:30:50;3.10;;;2.90;;
4756;SDS011;2392;52.578;13.426;2023-05-07T09:33:19;3.33;;;3.10;;
4756;SDS011;2392;52.578;13.426;2023-05-07T09:35:50;3.30;;;3.00;;
4756;SDS011;2392;52.578;13.426;2023-05-07T09:38:19;2.30;;;2.20;;
4756;SDS011;2392;52.578;13.426;2023-05-07T09:40:54;5.87;;;3.20;;
4756;SDS011;2392;52.578;13.426;2023-05-07T09:43:32;4.03;;;3.50;;
4756;SDS011;2392;52.578;13.426;2023-05-07T09:46:06;2.97;;;2.77;;
4756;SDS011;2392;52.578;13.426;2023-05-07T09:48:38;2.23;;;2.13;;
4756;SDS011;2392;52.578;13.426;2023-05-07T09:51:09;2.47;;;2.37;;
4756;SDS011;2392;52.578;13.426;2023-05-07T09:53:43;3.40;;;2.80;;
4756;SDS011;2392;52.578;13.426;2023-05-07T09:56:13;7.90;;;2.80;;
4756;SDS011;2392;52.578;13.426;2023-05-07T09:58:42;2.70;;;2.40;;
4756;SDS011;2392;52.578;13.426;2023-05-07T10:01:12;3.00;;;2.37;;
4756;SDS011;2392;52.578;13.426;2023-05-07T10:03:42;3.37;;;2.50;;
4756;SDS011;2392;52.578;13.426;2023-05-07T10:06:10;6.30;;;2.77;;
4756;SDS011;2392;52.578;13.426;2023-05-07T10:08:39;2.70;;;1.90;;
4756;SDS011;2392;52.578;13.426;2023-05-07T10:11:07;2.50;;;2.30;;
4756;SDS011;2392;52.578;13.426;2023-05-07T10:13:35;2.23;;;2.10;;
4756;SDS011;2392;52.578;13.426;2023-05-07T10:16:05;2.53;;;2.33;;
4756;SDS011;2392;52.578;13.426;2023-05-07T10:18:38;2.80;;;2.30;;
4756;SDS011;2392;52.578;13.426;2023-05-07T10:21:15;2.50;;;2.30;;
4756;SDS011;2392;52.578;13.426;2023-05-07T10:23:45;2.03;;;1.93;;
4756;SDS011;2392;52.578;13.426;2023-05-07T10:26:23;2.53;;;2.20;;
4756;SDS011;2392;52.578;13.426;2023-05-07T10:28:55;1.97;;;1.87;;
4756;SDS011;2392;52.578;13.426;2023-05-07T10:31:30;2.63;;;2.07;;
4756;SDS011;2392;52.578;13.426;2023-05-07T10:34:16;3.70;;;2.90;;
4756;SDS011;2392;52.578;13.426;2023-05-07T10:36:47;2.63;;;2.30;;
4756;SDS011;2392;52.578;13.426;2023-05-07T10:39:17;2.40;;;2.17;;
4756;SDS011;2392;52.578;13.426;2023-05-07T10:41:45;3.40;;;2.30;;
4756;SDS011;2392;52.578;13.426;2023-05-07T10:44:17;2.10;;;2.00;;
4756;SDS011;2392;52.578;13.426;2023-05-07T10:47:03;2.30;;;2.10;;
4756;SDS011;2392;52.578;13.426;2023-05-07T10:49:35;2.07;;;1.70;;
4756;SDS011;2392;52.578;13.426;2023-05-07T10:52:10;3.23;;;2.20;;
4756;SDS011;2392;52.578;13.426;2023-05-07T10:54:41;2.50;;;2.30;;
4756;SDS011;2392;52.578;13.426;2023-05-07T10:57:32;1.77;;;1.67;;
4756;SDS011;2392;52.578;13.426;2023-05-07T11:00:40;3.77;;;1.63;;
4756;SDS011;2392;52.578;13.426;2023-05-07T11:03:13;2.47;;;2.27;;
4756;SDS011;2392;52.578;13.426;2023-05-07T11:06:12;4.03;;;2.00;;
4756;SDS011;2392;52.578;13.426;2023-05-07T11:09:03;1.70;;;1.60;;
4756;SDS011;2392;52.578;13.426;2023-05-07T11:11:50;3.20;;;1.93;;
4756;SDS011;2392;52.578;13.426;2023-05-07T11:14:45;3.40;;;2.10;;
4756;SDS011;2392;52.578;13.426;2023-05-07T11:17:16;1.77;;;1.67;;
4756;SDS011;2392;52.578;13.426;2023-05-07T11:19:50;2.13;;;1.80;;
4756;SDS011;2392;52.578;13.426;2023-05-07T11:22:51;2.10;;;1.90;;
4756;SDS011;2392;52.578;13.426;2023-05-07T11:25:34;1.60;;;1.50;;
4756;SDS011;2392;52.578;13.426;2023-05-07T11:28:21;3.87;;;1.50;;
4756;SDS011;2392;52.578;13.426;2023-05-07T11:30:58;2.00;;;1.90;;
4756;SDS011;2392;52.578;13.426;2023-05-07T11:33:26;1.87;;;1.77;;
4756;SDS011;2392;52.578;13.426;2023-05-07T11:35:55;1.60;;;1.50;;
4756;SDS011;2392;52.578;13.426;2023-05-07T11:38:30;2.20;;;1.93;;
4756;SDS011;2392;52.578;13.426;2023-05-07T11:41:02;4.60;;;1.87;;
4756;SDS011;2392;52.578;13.426;2023-05-07T11:43:30;10.53;;;1.93;;
4756;SDS011;2392;52.578;13.426;2023-05-07T11:46:04;2.40;;;2.13;;
4756;SDS011;2392;52.578;13.426;2023-05-07T11:48:33;3.30;;;2.00;;
4756;SDS011;2392;52.578;13.426;2023-05-07T11:51:01;2.27;;;1.43;;
4756;SDS011;2392;52.578;13.426;2023-05-07T11:53:36;3.07;;;1.80;;
4756;SDS011;2392;52.578;13.426;2023-05-07T11:56:07;2.33;;;1.60;;
4756;SDS011;2392;52.578;13.426;2023-05-07T11:58:35;2.40;;;2.20;;
4756;SDS011;2392;52.578;13.426;2023-05-07T12:01:02;2.07;;;1.97;;
4756;SDS011;2392;52.578;13.426;2023-05-07T12:03:29;2.50;;;1.70;;
4756;SDS011;2392;52.578;13.426;2023-05-07T12:05:57;4.23;;;1.87;;
4756;SDS011;2392;52.578;13.426;2023-05-07T12:08:24;1.67;;;1.57;;
4756;SDS011;2392;52.578;13.426;2023-05-07T12:10:52;1.63;;;1.53;;
4756;SDS011;2392;52.578;13.426;2023-05-07T12:13:20;2.30;;;2.10;;
4756;SDS011;2392;52.578;13.426;2023-05-07T12:15:50;7.60;;;2.20;;
4756;SDS011;2392;52.578;13.426;2023-05-07T12:18:17;1.57;;;1.47;;
4756;SDS011;2392;52.578;13.426;2023-05-07T12:20:45;2.97;;;2.13;;
4756;SDS011;2392;52.578;13.426;2023-05-07T12:23:12;3.13;;;2.10;;
4756;SDS011;2392;52.578;13.426;2023-05-07T12:25:39;1.77;;;1.67;;
4756;SDS011;2392;52.578;13.426;2023-05-07T12:28:13;2.00;;;1.53;;
4756;SDS011;2392;52.578;13.426;2023-05-07T12:30:41;1.80;;;1.70;;
4756;SDS011;2392;52.578;13.426;2023-05-07T12:33:09;3.87;;;2.20;;
4756;SDS011;2392;52.578;13.426;2023-05-07T12:35:37;1.60;;;1.50;;
4756;SDS011;2392;52.578;13.426;2023-05-07T12:38:07;1.60;;;1.50;;
4756;SDS011;2392;52.578;13.426;2023-05-07T12:40:36;2.40;;;2.20;;
4756;SDS011;2392;52.578;13.426;2023-05-07T12:43:03;1.83;;;1.73;;
4756;SDS011;2392;52.578;13.426;2023-05-07T12:45:32;1.77;;;1.67;;
4756;SDS011;2392;52.578;13.426;2023-05-07T12:48:04;1.73;;;1.53;;
4756;SDS011;2392;52.578;13.426;2023-05-07T12:50:31;1.90;;;1.80;;
4756;SDS011;2392;52.578;13.426;2023-05-07T12:52:59;1.47;;;1.37;;
4756;SDS011;2392;52.578;13.426;2023-05-07T12:55:26;1.70;;;1.60;;
4756;SDS011;2392;52.578;13.426;2023-05-07T12:57:55;1.60;;;1.50;;
4756;SDS011;2392;52.578;13.426;2023-05-07T13:00:36;3.17;;;1.57;;
4756;SDS011;2392;52.578;13.426;2023-05-07T13:03:04;2.57;;;1.20;;
4756;SDS011;2392;52.578;13.426;2023-05-07T13:05:32;1.63;;;1.50;;
4756;SDS011;2392;52.578;13.426;2023-05-07T13:07:59;1.60;;;1.50;;
4756;SDS011;2392;52.578;13.426;2023-05-07T13:10:26;2.00;;;1.80;;
4756;SDS011;2392;52.578;13.426;2023-05-07T13:12:53;2.50;;;1.70;;
4756;SDS011;2392;52.578;13.426;2023-05-07T13:15:20;1.70;;;1.60;;
4756;SDS011;2392;52.578;13.426;2023-05-07T13:17:49;4.10;;;2.60;;
4756;SDS011;2392;52.578;13.426;2023-05-07T13:20:16;1.70;;;1.60;;
4756;SDS011;2392;52.578;13.426;2023-05-07T13:22:43;2.10;;;1.90;;
4756;SDS011;2392;52.578;13.426;2023-05-07T13:25:10;2.00;;;1.70;;
4756;SDS011;2392;52.578;13.426;2023-05-07T13:27:37;1.83;;;1.73;;
4756;SDS011;2392;52.578;13.426;2023-05-07T13:30:05;3.03;;;1.97;;
4756;SDS011;2392;52.578;13.426;2023-05-07T13:32:32;1.50;;;1.40;;
4756;SDS011;2392;52.578;13.426;2023-05-07T13:35:01;2.23;;;1.90;;
4756;SDS011;2392;52.578;13.426;2023-05-07T13:37:28;2.60;;;2.00;;
4756;SDS011;2392;52.578;13.426;2023-05-07T13:39:55;2.47;;;2.27;;
4756;SDS011;2392;52.578;13.426;2023-05-07T13:42:22;2.63;;;2.10;;
4756;SDS011;2392;52.578;13.426;2023-05-07T13:44:49;7.37;;;1.90;;
4756;SDS011;2392;52.578;13.426;2023-05-07T13:47:16;2.10;;;1.30;;
4756;SDS011;2392;52.578;13.426;2023-05-07T13:49:43;1.90;;;1.70;;
4756;SDS011;2392;52.578;13.426;2023-05-07T13:52:12;4.23;;;1.97;;
4756;SDS011;2392;52.578;13.426;2023-05-07T13:54:39;6.00;;;2.33;;
4756;SDS011;2392;52.578;13.426;2023-05-07T13:57:06;2.40;;;1.93;;
4756;SDS011;2392;52.578;13.426;2023-05-07T13:59:33;2.23;;;1.80;;
4756;SDS011;2392;52.578;13.426;2023-05-07T14:02:00;2.17;;;2.00;;
4756;SDS011;2392;52.578;13.426;2023-05-07T14:04:27;5.03;;;1.60;;
4756;SDS011;2392;52.578;13.426;2023-05-07T14:06:54;1.63;;;1.53;;
4756;SDS011;2392;52.578;13.426;2023-05-07T14:09:22;1.87;;;1.77;;
4756;SDS011;2392;52.578;13.426;2023-05-07T14:11:49;2.53;;;1.80;;
4756;SDS011;2392;52.578;13.426;2023-05-07T14:14:17;3.27;;;1.77;;
4756;SDS011;2392;52.578;13.426;2023-05-07T14:16:44;2.30;;;2.00;;
4756;SDS011;2392;52.578;13.426;2023-05-07T14:19:11;1.63;;;1.53;;
4756;SDS011;2392;52.578;13.426;2023-05-07T14:21:38;3.10;;;1.50;;
4756;SDS011;2392;52.578;13.426;2023-05-07T14:24:06;2.40;;;1.50;;
4756;SDS011;2392;52.578;13.426;2023-05-07T14:26:35;2.90;;;1.53;;
4756;SDS011;2392;52.578;13.426;2023-05-07T14:29:02;1.90;;;1.80;;
4756;SDS011;2392;52.578;13.426;2023-05-07T14:31:29;1.70;;;1.60;;
4756;SDS011;2392;52.578;13.426;2023-05-07T14:33:56;2.07;;;1.87;;
4756;SDS011;2392;52.578;13.426;2023-05-07T14:36:24;7.80;;;2.20;;
4756;SDS011;2392;52.578;13.426;2023-05-07T14:38:51;1.60;;;1.40;;
4756;SDS011;2392;52.578;13.426;2023-05-07T14:41:19;2.83;;;1.80;;
4756;SDS011;2392;52.578;13.426;2023-05-07T14:43:48;4.07;;;1.90;;
4756;SDS011;2392;52.578;13.426;2023-05-07T14:46:16;1.57;;;1.47;;
4756;SDS011;2392;52.578;13.426;2023-05-07T14:48:43;2.03;;;1.57;;
4756;SDS011;2392;52.578;13.426;2023-05-07T14:51:11;2.10;;;2.00;;
4756;SDS011;2392;52.578;13.426;2023-05-07T14:53:38;3.60;;;1.77;;
4756;SDS011;2392;52.578;13.426;2023-05-07T14:56:06;1.67;;;1.57;;
4756;SDS011;2392;52.578;13.426;2023-05-07T14:58:33;3.67;;;2.10;;
4756;SDS011;2392;52.578;13.426;2023-05-07T15:01:02;1.60;;;1.50;;
4756;SDS011;2392;52.578;13.426;2023-05-07T15:03:29;1.43;;;1.30;;
4756;SDS011;2392;52.578;13.426;2023-05-07T15:05:56;5.63;;;1.40;;
4756;SDS011;2392;52.578;13.426;2023-05-07T15:08:23;3.00;;;2.60;;
4756;SDS011;2392;52.578;13.426;2023-05-07T15:10:50;1.70;;;1.60;;